Deep River, Iowa
Current Conditions -  °F | °C
As of 7:15 AM on Thursday 23 Oct 2014 (Local Time) from KGGI Reporting Station
Moderate Rain Moderate Rain  
Wind Chill: 46°   Ceiling: 9000
Heat Index: 49°   Visibility: 10mi
Dew Point: 44°   Wind: 8mph
Humidity: 83%   Direction: 150°SSE
Pressure: 30.06"   Gusts: NA
Location:  41.58°N, 92.37°W
Report Text: KGGI 231215Z AUTO 15007KT 10SM RA BKN090 OVC120 10/07 A3006 RMK AO2 T00950068
Loading
Personal Weather Stations






























Interactive Weather Map New forecast layout! Learn more

10-Day Weather Forecast

Advertisements
Track Severe Weather on mobile